Penfield, NY

7:04 PM EDT on May 30, 2015 (GMT -0400)
Country Club East | | Change Station
CLOSE
Current Station
Personal Weather Station
Location: New York, NY
Elevation: 512 ft
Nearby Weather Stations

Elev 512 ft 43.15 °N, 77.44 °W | Updated 23 seconds ago

Mostly Cloudy
Mostly Cloudy
70.8 °F
Feels Like 70.8 °F
N
1.0
Wind Variable Wind from West
Gusts 1.0 mph

Today
High -- | Low -- °F
--% Chance of Precip.
Yesterday
High -- | Low -- °F
Precip. -- in
5:34 AM 8:40 PM
Waxing Gibbous, 92% visible
Pressure 29.94 in
Visibility 10.0 miles
Clouds Few 2000 ft
Scattered Clouds 4700 ft
Mostly Cloudy 8500 ft
Mostly Cloudy 20000 ft
Dew Point 66 °F
Humidity 85%
Rainfall 0.09 in
Snow Depth Not available.
UV 1 out of 12
Pollen 6.20 out of 12
Air Quality Not available.
Flu Activity Sporadic
METAR KROC 302254Z 22013KT 10SM FEW020 SCT047 BKN085 BKN200 23/19 A2994 RMK AO2 RAB22E35 SLP139 CB DSNT NE-SE-SW P0000 T02280189

More Conditions Fewer Conditions

Pressure 29.94 in
Visibility 10.0 miles
Clouds Few 2000 ft
Scattered Clouds 4700 ft
Mostly Cloudy 8500 ft
Mostly Cloudy 20000 ft
Dew Point 66 °F
Humidity 85%
Rainfall 0.09 in
Snow Depth Not available.
UV 1 out of 12
Pollen 6.20 out of 12
Air Quality Not available.
Flu Activity Sporadic
METAR KROC 302254Z 22013KT 10SM FEW020 SCT047 BKN085 BKN200 23/19 A2994 RMK AO2 RAB22E35 SLP139 CB DSNT NE-SE-SW P0000 T02280189

More Conditions Fewer Conditions

10-Day Weather Forecast

Almanac

Astronomy

May. 30, 2015 Rise Set
Actual Time
Civil Twilight
Nautical Twilight
Astronomical Twilight
Moon
Length of Visible Light
Length of Day
Tomorrow will be .
, % of the Moon is Illuminated

Today's Extremes

State Highs State Lows

Community

WunderPhotos

Upload Photos

1,825,594 photos uploaded!

WunderBlogs® & News

Nearby

Air Quality

  Air Quality AQ Index Pollutant
Not available.

Snow Depth

Station Depth Elevation

Earthquake Activity

City Distance Mag. Time & Date
Minimum magnitude displayed is 2.5.

Coastal Water Temperatures

Place Temperature

Stations

Nearby Weather Stations

Station Location Temp. Windchill Dew Point Humidity Wind Precip. Elev Updated Type